createdAt,value
2024-03-15T00:00:54.524Z,4.72
2024-03-15T00:03:22.316Z,4.32
2024-03-15T00:05:49.006Z,3.25
2024-03-15T00:08:15.568Z,5.03
2024-03-15T00:10:42.180Z,3.30
2024-03-15T00:13:08.763Z,4.25
2024-03-15T00:15:35.323Z,3.28
2024-03-15T00:18:02.431Z,4.78
2024-03-15T00:20:29.030Z,3.42
2024-03-15T00:22:55.546Z,3.40
2024-03-15T00:25:22.583Z,4.50
2024-03-15T00:27:49.910Z,3.75
2024-03-15T00:30:16.734Z,4.95
2024-03-15T00:32:43.805Z,4.00
2024-03-15T00:35:10.609Z,4.53
2024-03-15T00:37:37.493Z,3.58
2024-03-15T00:40:04.922Z,3.65
2024-03-15T00:42:31.978Z,3.83
2024-03-15T00:44:58.933Z,3.65
2024-03-15T00:47:25.738Z,3.38
2024-03-15T00:49:52.401Z,4.50
2024-03-15T00:52:19.117Z,6.47
2024-03-15T00:54:47.239Z,4.25
2024-03-15T00:57:14.739Z,4.40
2024-03-15T00:59:41.352Z,6.00
2024-03-15T01:02:07.859Z,3.53
2024-03-15T01:04:36.042Z,3.13
2024-03-15T01:07:03.286Z,5.38
2024-03-15T01:09:30.977Z,4.80
2024-03-15T01:11:58.274Z,2.72
2024-03-15T01:14:24.949Z,4.38
2024-03-15T01:16:51.552Z,3.85
2024-03-15T01:19:18.193Z,3.70
2024-03-15T01:21:44.914Z,4.82
2024-03-15T01:24:14.007Z,4.05
2024-03-15T01:26:41.194Z,4.50
2024-03-15T01:29:09.115Z,4.32
2024-03-15T01:31:37.015Z,5.03
2024-03-15T01:34:03.718Z,3.47
2024-03-15T01:36:30.500Z,4.85
2024-03-15T01:38:57.172Z,4.90
2024-03-15T01:41:23.710Z,3.83
2024-03-15T01:43:50.438Z,4.40
2024-03-15T01:46:17.939Z,3.83
2024-03-15T01:48:45.839Z,4.07
2024-03-15T01:51:13.190Z,3.90
2024-03-15T01:53:41.063Z,2.47
2024-03-15T01:56:07.778Z,4.22
2024-03-15T01:58:34.356Z,3.72
2024-03-15T02:01:01.053Z,2.80
2024-03-15T02:03:30.827Z,3.15
2024-03-15T02:05:57.435Z,3.03
2024-03-15T02:08:24.018Z,4.53
2024-03-15T02:10:50.566Z,3.50
2024-03-15T02:13:17.193Z,4.93
2024-03-15T02:15:43.990Z,4.18
2024-03-15T02:18:10.851Z,4.00
2024-03-15T02:20:38.395Z,3.42
2024-03-15T02:23:05.108Z,3.90
2024-03-15T02:25:31.726Z,3.22
2024-03-15T02:27:58.529Z,3.03
2024-03-15T02:30:26.847Z,2.88
2024-03-15T02:32:53.717Z,4.47
2024-03-15T02:35:27.746Z,4.28
2024-03-15T02:37:59.139Z,4.20
2024-03-15T02:40:25.825Z,2.88
2024-03-15T02:42:53.042Z,5.35
2024-03-15T02:45:22.616Z,3.50
2024-03-15T02:47:49.790Z,3.78
2024-03-15T02:50:16.625Z,3.17
2024-03-15T02:52:44.745Z,4.53
2024-03-15T02:55:12.161Z,3.22
2024-03-15T02:57:38.867Z,3.75
2024-03-15T03:00:06.158Z,3.30
2024-03-15T03:02:32.887Z,3.67
2024-03-15T03:04:59.452Z,2.47
2024-03-15T03:07:26.083Z,3.90
2024-03-15T03:09:53.304Z,3.05
2024-03-15T03:12:20.112Z,3.00
2024-03-15T03:14:46.908Z,3.03
2024-03-15T03:17:14.333Z,3.45
2024-03-15T03:19:40.899Z,3.00
2024-03-15T03:22:07.631Z,2.80
2024-03-15T03:24:34.349Z,3.50
2024-03-15T03:27:01.148Z,3.80
2024-03-15T03:29:28.066Z,3.00
2024-03-15T03:31:54.786Z,3.75
2024-03-15T03:34:21.340Z,3.97
2024-03-15T03:36:48.018Z,3.55
2024-03-15T03:39:15.048Z,2.60
2024-03-15T03:41:41.871Z,4.18
2024-03-15T03:44:08.753Z,2.80
2024-03-15T03:46:35.371Z,3.00
2024-03-15T03:49:02.426Z,2.70
2024-03-15T03:51:29.069Z,4.18
2024-03-15T03:53:57.485Z,3.50
2024-03-15T03:56:24.146Z,2.67
2024-03-15T03:58:50.844Z,2.65
2024-03-15T04:01:18.846Z,2.75
2024-03-15T04:03:50.349Z,2.92
2024-03-15T04:06:17.462Z,3.03
2024-03-15T04:08:45.285Z,3.42
2024-03-15T04:11:11.881Z,4.15
2024-03-15T04:13:38.451Z,3.58
2024-03-15T04:16:05.512Z,3.38
2024-03-15T04:18:33.948Z,3.45
2024-03-15T04:21:00.876Z,3.55
2024-03-15T04:23:28.155Z,2.92
2024-03-15T04:25:56.441Z,2.00
2024-03-15T04:28:23.277Z,2.03
2024-03-15T04:30:50.246Z,4.75
2024-03-15T04:33:18.321Z,4.90
2024-03-15T04:35:45.049Z,3.63
2024-03-15T04:38:11.630Z,2.05
2024-03-15T04:40:38.222Z,4.47
2024-03-15T04:43:05.297Z,3.10
2024-03-15T04:45:31.887Z,4.65
2024-03-15T04:47:59.014Z,3.20
2024-03-15T04:50:26.054Z,3.25
2024-03-15T04:52:53.678Z,3.47
2024-03-15T04:55:23.574Z,3.47
2024-03-15T04:57:51.088Z,2.70
2024-03-15T05:00:22.304Z,3.83
2024-03-15T05:02:51.356Z,2.28
2024-03-15T05:05:19.505Z,3.65
2024-03-15T05:07:48.236Z,3.28
2024-03-15T05:10:16.893Z,2.33
2024-03-15T05:12:44.887Z,2.00
2024-03-15T05:15:12.217Z,3.70
2024-03-15T05:17:39.870Z,2.42
2024-03-15T05:20:10.474Z,2.70
2024-03-15T05:22:37.158Z,2.42
2024-03-15T05:25:06.482Z,2.80
2024-03-15T05:27:34.340Z,3.28
2024-03-15T05:30:01.440Z,4.25
2024-03-15T05:32:29.438Z,2.38
2024-03-15T05:34:56.412Z,6.35
2024-03-15T05:37:23.035Z,4.13
2024-03-15T05:39:49.805Z,3.35
2024-03-15T05:42:16.677Z,3.53
2024-03-15T05:44:46.293Z,2.92
2024-03-15T05:47:16.112Z,2.17
2024-03-15T05:49:42.767Z,2.10
2024-03-15T05:52:11.716Z,3.38
2024-03-15T05:54:38.798Z,2.20
2024-03-15T05:57:08.164Z,2.97
2024-03-15T05:59:34.790Z,2.08
2024-03-15T06:02:01.570Z,1.80
2024-03-15T06:04:28.240Z,2.50
2024-03-15T06:06:54.964Z,2.10
2024-03-15T06:09:21.738Z,4.28
2024-03-15T06:11:50.277Z,2.63
2024-03-15T06:14:17.237Z,4.85
2024-03-15T06:16:44.742Z,2.85
2024-03-15T06:19:11.432Z,2.90
2024-03-15T06:21:38.169Z,2.50
2024-03-15T06:24:07.928Z,2.83
2024-03-15T06:26:34.627Z,2.78
2024-03-15T06:29:01.801Z,4.07
2024-03-15T06:31:28.990Z,3.80
2024-03-15T06:33:58.130Z,2.72
2024-03-15T06:36:31.317Z,2.40
2024-03-15T06:39:10.324Z,2.47
2024-03-15T06:41:41.810Z,2.53
2024-03-15T06:44:17.465Z,2.08
2024-03-15T06:47:03.012Z,4.07
2024-03-15T06:49:50.241Z,3.80
2024-03-15T06:52:35.501Z,3.33
2024-03-15T06:55:03.126Z,3.47
2024-03-15T06:57:29.723Z,3.47
2024-03-15T06:59:56.788Z,2.10
2024-03-15T07:02:23.582Z,2.58
2024-03-15T07:04:53.253Z,4.68
2024-03-15T07:07:21.349Z,3.72
2024-03-15T07:09:48.423Z,4.40
2024-03-15T07:12:17.918Z,4.28
2024-03-15T07:14:48.618Z,2.47
2024-03-15T07:17:17.048Z,2.88
2024-03-15T07:19:44.020Z,6.47
2024-03-15T07:22:10.786Z,4.82
2024-03-15T07:24:38.346Z,3.28
2024-03-15T07:27:05.791Z,3.15
2024-03-15T07:29:32.574Z,2.28
2024-03-15T07:31:59.153Z,3.90
2024-03-15T07:34:25.870Z,3.72
2024-03-15T07:36:57.861Z,2.13
2024-03-15T07:39:30.443Z,2.33
2024-03-15T07:42:00.457Z,4.88
2024-03-15T07:44:28.359Z,5.03
2024-03-15T07:46:57.352Z,2.65
2024-03-15T07:49:24.917Z,3.00
2024-03-15T07:51:52.312Z,4.22
2024-03-15T07:54:24.994Z,5.32
2024-03-15T07:56:54.450Z,2.90
2024-03-15T07:59:21.636Z,4.43
2024-03-15T08:01:48.861Z,5.03
2024-03-15T08:04:15.921Z,4.57
2024-03-15T08:06:42.710Z,4.45
2024-03-15T08:09:12.518Z,4.05
2024-03-15T08:11:39.449Z,7.50
2024-03-15T08:14:09.385Z,4.63
2024-03-15T08:16:36.139Z,7.63
2024-03-15T08:19:09.405Z,5.28
2024-03-15T08:21:38.472Z,2.47
2024-03-15T08:24:06.000Z,5.68
2024-03-15T08:26:33.554Z,7.50
2024-03-15T08:29:01.479Z,7.07
2024-03-15T08:31:28.469Z,5.78
2024-03-15T08:33:55.051Z,4.55
2024-03-15T08:36:23.030Z,6.75
2024-03-15T08:38:49.979Z,3.75
2024-03-15T08:41:16.849Z,7.82
2024-03-15T08:43:43.433Z,4.05
2024-03-15T08:46:11.836Z,4.32
2024-03-15T08:48:38.833Z,7.13
2024-03-15T08:51:05.689Z,9.27
2024-03-15T08:53:33.195Z,7.57
2024-03-15T08:55:59.823Z,6.78
2024-03-15T08:58:29.414Z,6.20
2024-03-15T09:00:56.908Z,7.00
2024-03-15T09:03:25.228Z,6.40
2024-03-15T09:05:51.960Z,7.55
2024-03-15T09:08:20.462Z,8.00
2024-03-15T09:10:47.080Z,7.43
2024-03-15T09:13:13.722Z,6.85
2024-03-15T09:15:40.349Z,6.35
2024-03-15T09:18:09.791Z,4.50
2024-03-15T09:20:38.947Z,5.47
2024-03-15T09:23:05.841Z,4.57
2024-03-15T09:25:32.574Z,7.85
2024-03-15T09:28:00.643Z,6.15
2024-03-15T09:30:28.464Z,5.75
2024-03-15T09:32:55.628Z,6.22
2024-03-15T09:35:22.550Z,6.05
2024-03-15T09:37:52.382Z,4.50
2024-03-15T09:40:20.096Z,4.63
2024-03-15T09:43:04.732Z,6.45
2024-03-15T09:45:32.598Z,5.70
2024-03-15T09:48:01.965Z,8.77
2024-03-15T09:50:32.255Z,5.43
2024-03-15T09:52:58.969Z,4.03
2024-03-15T09:55:25.661Z,5.72
2024-03-15T09:57:52.575Z,5.43
2024-03-15T10:00:25.767Z,7.43
2024-03-15T10:02:54.770Z,6.32
2024-03-15T10:05:22.805Z,5.20
2024-03-15T10:07:50.206Z,10.05
2024-03-15T10:10:18.490Z,4.93
2024-03-15T10:12:46.937Z,6.38
2024-03-15T10:15:16.153Z,5.05
2024-03-15T10:17:44.999Z,5.78
2024-03-15T10:20:20.245Z,5.38
2024-03-15T10:22:49.879Z,5.57
2024-03-15T10:25:20.433Z,6.05
2024-03-15T10:27:52.181Z,5.38
2024-03-15T10:30:23.918Z,6.82
2024-03-15T10:32:51.771Z,6.15
2024-03-15T10:35:21.837Z,7.10
2024-03-15T10:37:49.748Z,5.57
2024-03-15T10:40:18.791Z,7.13
2024-03-15T10:42:53.300Z,6.07
2024-03-15T10:45:27.325Z,4.88
2024-03-15T10:47:55.982Z,5.75
2024-03-15T10:50:26.170Z,5.28
2024-03-15T10:52:55.831Z,6.78
2024-03-15T10:55:30.873Z,6.80
2024-03-15T11:00:29.390Z,6.03
2024-03-15T11:02:58.642Z,6.88
2024-03-15T11:05:30.396Z,4.65
2024-03-15T11:08:14.018Z,4.18
2024-03-15T11:10:41.800Z,3.83
2024-03-15T11:13:08.763Z,3.97
2024-03-15T11:15:37.097Z,3.45
2024-03-15T11:18:04.828Z,5.85
2024-03-15T11:20:49.212Z,4.70
2024-03-15T11:23:18.681Z,4.57
2024-03-15T11:26:09.132Z,5.75
2024-03-15T11:28:40.971Z,8.02
2024-03-15T11:31:18.218Z,4.43
2024-03-15T11:33:45.603Z,5.32
2024-03-15T11:36:12.655Z,4.28
2024-03-15T11:38:46.516Z,3.10
2024-03-15T11:41:13.802Z,4.47
2024-03-15T11:43:40.437Z,5.43
2024-03-15T11:46:09.575Z,3.63
2024-03-15T11:48:36.612Z,3.40
2024-03-15T11:51:03.827Z,3.28
2024-03-15T11:53:31.904Z,3.45
2024-03-15T11:55:59.596Z,2.58
2024-03-15T11:58:26.558Z,6.55
2024-03-15T12:00:54.485Z,4.72
2024-03-15T12:03:27.728Z,5.65
2024-03-15T12:05:55.865Z,3.15
2024-03-15T12:08:24.576Z,4.28
2024-03-15T12:10:53.207Z,4.30
2024-03-15T12:13:25.625Z,3.08
2024-03-15T12:15:53.858Z,4.35
2024-03-15T12:18:22.755Z,3.63
2024-03-15T12:20:53.874Z,4.75
2024-03-15T12:23:23.030Z,11.30
2024-03-15T12:25:50.920Z,20.60
2024-03-15T12:28:19.629Z,29.83
2024-03-15T12:30:47.729Z,30.60
2024-03-15T12:33:14.981Z,29.13
2024-03-15T12:35:43.525Z,31.45
2024-03-15T12:38:19.742Z,32.40
2024-03-15T12:40:46.764Z,30.27
2024-03-15T12:43:13.770Z,29.15
2024-03-15T12:45:42.428Z,36.63
2024-03-15T12:48:10.901Z,30.10
2024-03-15T12:50:38.130Z,34.88
2024-03-15T12:53:08.541Z,33.10
2024-03-15T12:55:35.465Z,30.02
2024-03-15T12:58:02.328Z,31.48
2024-03-15T13:00:31.964Z,32.40
2024-03-15T13:02:58.903Z,30.40
2024-03-15T13:05:26.656Z,32.13
2024-03-15T13:07:53.471Z,24.65
2024-03-15T13:10:24.065Z,25.27
2024-03-15T13:12:52.718Z,29.02
2024-03-15T13:15:20.223Z,28.45
2024-03-15T13:17:50.354Z,25.63
2024-03-15T13:20:17.772Z,26.08
2024-03-15T13:22:45.351Z,27.27
2024-03-15T13:25:29.517Z,29.25
2024-03-15T13:28:02.201Z,24.90
2024-03-15T13:30:28.961Z,26.85
2024-03-15T13:32:58.439Z,27.42
2024-03-15T13:35:28.295Z,23.67
2024-03-15T13:37:54.916Z,27.48
2024-03-15T13:40:23.506Z,27.02
2024-03-15T13:42:55.386Z,31.08
2024-03-15T13:45:24.251Z,23.42
2024-03-15T13:47:52.884Z,25.00
2024-03-15T13:50:20.799Z,24.90
2024-03-15T13:52:49.172Z,31.67
2024-03-15T13:55:16.868Z,35.13
2024-03-15T13:57:46.006Z,31.15
2024-03-15T14:00:35.503Z,29.40
2024-03-15T14:03:03.572Z,28.25
2024-03-15T14:05:39.903Z,29.95
2024-03-15T14:08:14.032Z,29.13
2024-03-15T14:10:41.022Z,31.38
2024-03-15T14:13:09.281Z,32.10
2024-03-15T14:15:40.634Z,31.20
2024-03-15T14:18:09.772Z,28.65
2024-03-15T14:20:37.763Z,31.48
2024-03-15T14:23:05.114Z,30.55
2024-03-15T14:25:34.789Z,27.15
2024-03-15T14:28:07.374Z,26.40
2024-03-15T14:30:36.372Z,25.73
2024-03-15T14:33:04.687Z,27.50
2024-03-15T14:35:31.674Z,29.45
2024-03-15T14:37:58.369Z,24.13
2024-03-15T14:40:28.131Z,24.27
2024-03-15T14:42:55.724Z,28.95
2024-03-15T14:45:23.947Z,24.80
2024-03-15T14:47:55.579Z,24.58
2024-03-15T14:50:25.532Z,24.73
2024-03-15T14:52:52.245Z,24.58
2024-03-15T14:55:19.430Z,51.08
2024-03-15T14:57:46.061Z,48.42
2024-03-15T15:00:16.468Z,44.08
2024-03-15T15:02:44.811Z,41.22
2024-03-15T15:05:12.016Z,35.92
2024-03-15T15:07:38.730Z,35.92
2024-03-15T15:10:09.314Z,33.88
2024-03-15T15:12:37.120Z,32.47
2024-03-15T15:15:07.909Z,33.35
2024-03-15T15:17:37.926Z,33.70
2024-03-15T15:20:11.134Z,30.88
2024-03-15T15:22:42.655Z,32.15
2024-03-15T15:25:12.016Z,31.42
2024-03-15T15:27:39.785Z,30.85
2024-03-15T15:30:10.494Z,28.10
2024-03-15T15:32:37.681Z,26.67
2024-03-15T15:35:09.300Z,25.30
2024-03-15T15:37:39.674Z,23.48
2024-03-15T15:40:14.570Z,23.92
2024-03-15T15:42:42.111Z,23.98
2024-03-15T15:45:09.299Z,22.88
2024-03-15T15:47:36.104Z,22.75
2024-03-15T15:50:06.860Z,24.52
2024-03-15T15:52:36.177Z,21.17
2024-03-15T15:55:04.129Z,21.60
2024-03-15T15:57:31.286Z,22.55
2024-03-15T15:59:59.543Z,20.40
2024-03-15T16:02:26.222Z,18.60
2024-03-15T16:04:53.469Z,18.63
2024-03-15T16:07:20.057Z,22.35
2024-03-15T16:09:46.693Z,19.92
2024-03-15T16:12:13.271Z,20.77
2024-03-15T16:14:39.871Z,18.40
2024-03-15T16:17:13.672Z,19.88
2024-03-15T16:19:40.279Z,17.05
2024-03-15T16:22:06.928Z,19.25
2024-03-15T16:24:33.611Z,16.65
2024-03-15T16:27:01.771Z,19.80
2024-03-15T16:29:28.355Z,14.20
2024-03-15T16:31:55.690Z,18.83
2024-03-15T16:34:22.338Z,14.20
2024-03-15T16:36:49.078Z,17.02
2024-03-15T16:39:19.191Z,17.77
2024-03-15T16:41:46.131Z,14.52
2024-03-15T16:44:12.686Z,16.05
2024-03-15T16:46:39.473Z,16.05
2024-03-15T16:49:06.137Z,14.35
2024-03-15T16:51:32.863Z,16.00
2024-03-15T16:53:59.459Z,12.90
2024-03-15T16:56:26.101Z,12.27
2024-03-15T16:58:52.640Z,17.85
2024-03-15T17:01:19.286Z,15.77
2024-03-15T17:03:46.212Z,13.05
2024-03-15T17:06:13.189Z,14.77
2024-03-15T17:08:40.279Z,14.13
2024-03-15T17:11:08.060Z,13.75
2024-03-15T17:13:34.628Z,11.60
2024-03-15T17:16:01.361Z,12.93
2024-03-15T17:18:27.998Z,13.30
2024-03-15T17:20:54.891Z,11.27
2024-03-15T17:23:22.115Z,14.18
2024-03-15T17:25:53.676Z,15.88
2024-03-15T17:28:20.600Z,12.93
2024-03-15T17:30:52.201Z,14.45
2024-03-15T17:33:19.097Z,14.05
2024-03-15T17:35:48.723Z,18.85
2024-03-15T17:38:15.424Z,18.70
2024-03-15T17:40:43.955Z,13.45
2024-03-15T17:43:10.600Z,14.00
2024-03-15T17:45:38.802Z,17.52
2024-03-15T17:48:06.059Z,19.73
2024-03-15T17:50:32.687Z,29.20
2024-03-15T17:53:00.051Z,26.33
2024-03-15T17:55:26.878Z,29.30
2024-03-15T17:57:55.226Z,31.08
2024-03-15T18:00:22.159Z,27.98
2024-03-15T18:02:49.516Z,28.23
2024-03-15T18:05:16.111Z,27.48
2024-03-15T18:07:42.854Z,28.85
2024-03-15T18:10:10.883Z,28.67
2024-03-15T18:12:41.211Z,28.63
2024-03-15T18:15:08.149Z,29.48
2024-03-15T18:17:34.772Z,25.05
2024-03-15T18:20:02.275Z,27.83
2024-03-15T18:22:28.940Z,29.38
2024-03-15T18:24:55.555Z,26.83
2024-03-15T18:27:22.411Z,25.65
2024-03-15T18:29:49.075Z,31.20
2024-03-15T18:32:15.829Z,31.45
2024-03-15T18:34:42.441Z,40.53
2024-03-15T18:37:10.674Z,31.88
2024-03-15T18:39:38.987Z,34.92
2024-03-15T18:42:07.177Z,41.33
2024-03-15T18:44:33.872Z,39.70
2024-03-15T18:47:00.529Z,31.92
2024-03-15T18:49:29.955Z,38.80
2024-03-15T18:51:57.396Z,34.80
2024-03-15T18:54:23.984Z,31.92
2024-03-15T18:56:53.204Z,35.25
2024-03-15T18:59:30.990Z,34.10
2024-03-15T19:01:58.045Z,33.55
2024-03-15T19:04:24.781Z,30.45
2024-03-15T19:06:51.426Z,34.03
2024-03-15T19:09:18.005Z,29.33
2024-03-15T19:11:45.043Z,34.03
2024-03-15T19:14:11.692Z,29.42
2024-03-15T19:16:39.011Z,27.13
2024-03-15T19:19:05.950Z,29.55
2024-03-15T19:21:32.827Z,28.23
2024-03-15T19:23:59.541Z,25.33
2024-03-15T19:26:26.173Z,29.10
2024-03-15T19:28:52.728Z,27.70
2024-03-15T19:31:19.318Z,30.45
2024-03-15T19:33:45.913Z,27.23
2024-03-15T19:36:13.005Z,27.85
2024-03-15T19:38:39.708Z,28.00
2024-03-15T19:41:11.950Z,26.55
2024-03-15T19:43:40.784Z,28.70
2024-03-15T19:46:07.814Z,23.48
2024-03-15T19:48:34.631Z,28.60
2024-03-15T19:51:01.896Z,26.92
2024-03-15T19:53:30.453Z,27.33
2024-03-15T19:55:59.625Z,24.25
2024-03-15T19:58:29.887Z,26.38
2024-03-15T20:00:58.352Z,27.13
2024-03-15T20:03:25.261Z,25.45
2024-03-15T20:05:55.518Z,25.55
2024-03-15T20:08:23.482Z,27.00
2024-03-15T20:10:50.588Z,26.60
2024-03-15T20:13:17.199Z,28.38
2024-03-15T20:15:47.196Z,28.40
2024-03-15T20:18:13.864Z,24.50
2024-03-15T20:20:41.468Z,25.48
2024-03-15T20:23:09.036Z,25.45
2024-03-15T20:25:35.737Z,25.17
2024-03-15T20:28:04.386Z,24.88
2024-03-15T20:30:31.808Z,21.95
2024-03-15T20:33:00.105Z,22.42
2024-03-15T20:35:29.248Z,23.45
2024-03-15T20:37:57.611Z,24.98
2024-03-15T20:40:27.985Z,23.10
2024-03-15T20:42:56.077Z,20.17
2024-03-15T20:45:23.570Z,25.88
2024-03-15T20:47:51.088Z,21.48
2024-03-15T20:50:18.317Z,24.08
2024-03-15T20:52:44.886Z,21.48
2024-03-15T20:55:12.247Z,23.23
2024-03-15T20:57:38.945Z,21.42
2024-03-15T21:00:08.760Z,23.35
2024-03-15T21:02:35.481Z,24.17
2024-03-15T21:05:02.277Z,23.00
2024-03-15T21:07:29.032Z,22.80
2024-03-15T21:09:55.734Z,24.77
2024-03-15T21:12:28.110Z,23.40
2024-03-15T21:14:54.841Z,27.10
2024-03-15T21:17:21.511Z,24.48
2024-03-15T21:19:52.846Z,21.42
2024-03-15T21:22:19.704Z,21.15
2024-03-15T21:24:49.418Z,23.77
2024-03-15T21:27:18.288Z,28.17
2024-03-15T21:29:44.920Z,22.98
2024-03-15T21:32:11.501Z,27.27
2024-03-15T21:34:38.274Z,27.63
2024-03-15T21:37:04.994Z,25.27
2024-03-15T21:39:31.875Z,27.02
2024-03-15T21:41:58.933Z,25.02
2024-03-15T21:44:28.381Z,26.63
2024-03-15T21:46:54.964Z,25.65
2024-03-15T21:49:21.596Z,25.77
2024-03-15T21:51:48.691Z,24.17
2024-03-15T21:54:15.494Z,32.50
2024-03-15T21:56:43.929Z,28.67
2024-03-15T21:59:10.603Z,29.30
2024-03-15T22:01:38.196Z,27.98
2024-03-15T22:04:05.644Z,25.83
2024-03-15T22:06:40.231Z,29.08
2024-03-15T22:09:07.325Z,28.25
2024-03-15T22:11:33.925Z,22.15
2024-03-15T22:14:06.892Z,26.40
2024-03-15T22:16:36.942Z,25.45
2024-03-15T22:19:05.464Z,28.13
2024-03-15T22:21:32.298Z,26.42
2024-03-15T22:23:58.896Z,24.60
2024-03-15T22:26:25.433Z,27.95
2024-03-15T22:28:52.023Z,27.25
2024-03-15T22:31:18.670Z,29.73
2024-03-15T22:33:45.320Z,29.80
2024-03-15T22:36:11.920Z,41.40
2024-03-15T22:38:38.521Z,45.28
2024-03-15T22:41:05.092Z,46.90
2024-03-15T22:43:33.016Z,46.38
2024-03-15T22:46:00.598Z,48.88
2024-03-15T22:48:27.222Z,47.30
2024-03-15T22:50:53.848Z,45.78
2024-03-15T22:53:20.406Z,45.30
2024-03-15T22:55:47.083Z,42.28
2024-03-15T22:58:13.826Z,43.95
2024-03-15T23:00:48.911Z,43.95
2024-03-15T23:03:16.071Z,42.97
2024-03-15T23:05:44.329Z,42.65
2024-03-15T23:08:11.165Z,36.88
2024-03-15T23:10:41.316Z,34.88
2024-03-15T23:13:09.559Z,40.90
2024-03-15T23:15:39.806Z,42.10
2024-03-15T23:18:10.427Z,40.50
2024-03-15T23:20:37.162Z,34.70
2024-03-15T23:23:03.874Z,40.67
2024-03-15T23:25:30.571Z,36.88
2024-03-15T23:27:57.215Z,36.83
2024-03-15T23:30:24.181Z,38.58
2024-03-15T23:32:52.990Z,35.78
2024-03-15T23:35:20.620Z,33.33
2024-03-15T23:37:48.035Z,35.65
2024-03-15T23:40:15.978Z,41.03
2024-03-15T23:42:43.018Z,37.65
2024-03-15T23:45:09.717Z,31.33
2024-03-15T23:47:37.132Z,32.63
2024-03-15T23:50:05.272Z,32.65
2024-03-15T23:52:31.959Z,37.97
2024-03-15T23:54:58.654Z,30.40
2024-03-15T23:57:25.968Z,29.85
2024-03-15T23:59:52.648Z,30.50
